Weather at Children's Hospital Heliport

Public forecast

Using degrees Fahrenheit for public forecast. Weather courtesy of forecast.io.

Closest aviation weather report (METAR) to Children's Hospital Heliport

Closest report is New Orleans NAS JRB/Alvin Callender Field, 7.3 nm (13.6 km) SE. Retrieved 2020/10/27 20:02 UTC (18 minutes ago):

KNBG 272002Z 06007KT 6SM BR BKN012 BKN019 BKN031 OVC150 27/27 A2992 RMK AO2 T02670267

Closest aviation forecast (TAF) to Children's Hospital Heliport

Forecast is more than 12 hours old.

Closest forecast is New Orleans NAS JRB/Alvin Callender Field, 7.3 nm (13.6 km) SE. Retrieved 2020/02/12 15:10 UTC (9 months ago):

TAF COR KNBG 121500Z 1215/1315 18013G20KT 4800 BR VCSH BKN010 OVC025 QNH2988INS TEMPO 1215/1218 17010KT 1600 -SHRA BR OVC006 BECMG 1218/1220 18012KT 9000 BR VCSH BKN015 OVC025 QNH2977INS TEMPO 1218/1223 19012G18KT 4800 -SHRA BR BKN010 OVC020 BECMG 1223/1301 19012KT 9999 VCTS SCT008 BKN015 OVC020CB QNH2980INS TEMPO 1223/1305 VRB20G30KT 3200 TSRA BR OVC008CB TEMPO 1305/1309 VRB25G35KT 1200 +TSRA BR OVC004CB BECMG 1309/1311 35012G18KT 1600 SHRA BR OVC005 QNH2982INS T25/1220Z T11/1313Z COR 1603 FN20039